sensor_id;sensor_type;location;lat;lon;timestamp;P1;durP1;ratioP1;P2;durP2;ratioP2
9506;SDS011;4791;47.528;9.372;2023-08-17T00:06:45;5.87;;;4.63;;
9506;SDS011;4791;47.528;9.372;2023-08-17T00:21:47;6.60;;;4.60;;
9506;SDS011;4791;47.528;9.372;2023-08-17T00:36:53;7.30;;;4.30;;
9506;SDS011;4791;47.528;9.372;2023-08-17T00:51:54;5.73;;;4.43;;
9506;SDS011;4791;47.528;9.372;2023-08-17T01:06:54;6.17;;;5.03;;
9506;SDS011;4791;47.528;9.372;2023-08-17T01:21:57;5.67;;;4.90;;
9506;SDS011;4791;47.528;9.372;2023-08-17T01:37:03;6.80;;;4.73;;
9506;SDS011;4791;47.528;9.372;2023-08-17T01:52:06;6.07;;;4.50;;
9506;SDS011;4791;47.528;9.372;2023-08-17T02:07:06;7.10;;;4.83;;
9506;SDS011;4791;47.528;9.372;2023-08-17T02:22:07;7.70;;;3.80;;
9506;SDS011;4791;47.528;9.372;2023-08-17T02:37:07;5.73;;;4.10;;
9506;SDS011;4791;47.528;9.372;2023-08-17T02:52:07;5.75;;;3.70;;
9506;SDS011;4791;47.528;9.372;2023-08-17T03:07:08;7.88;;;4.28;;
9506;SDS011;4791;47.528;9.372;2023-08-17T03:22:08;7.77;;;4.40;;
9506;SDS011;4791;47.528;9.372;2023-08-17T03:37:09;6.63;;;4.10;;
9506;SDS011;4791;47.528;9.372;2023-08-17T03:52:09;8.93;;;4.00;;
9506;SDS011;4791;47.528;9.372;2023-08-17T04:07:09;5.25;;;3.33;;
9506;SDS011;4791;47.528;9.372;2023-08-17T04:22:10;4.57;;;4.10;;
9506;SDS011;4791;47.528;9.372;2023-08-17T04:37:10;7.47;;;3.95;;
9506;SDS011;4791;47.528;9.372;2023-08-17T04:52:11;4.78;;;3.55;;
9506;SDS011;4791;47.528;9.372;2023-08-17T05:07:11;5.17;;;3.80;;
9506;SDS011;4791;47.528;9.372;2023-08-17T05:22:14;9.50;;;3.70;;
9506;SDS011;4791;47.528;9.372;2023-08-17T05:37:14;29.87;;;5.57;;
9506;SDS011;4791;47.528;9.372;2023-08-17T05:52:15;6.00;;;3.25;;
9506;SDS011;4791;47.528;9.372;2023-08-17T06:07:16;7.47;;;3.78;;
9506;SDS011;4791;47.528;9.372;2023-08-17T06:22:18;14.17;;;10.60;;
9506;SDS011;4791;47.528;9.372;2023-08-17T06:37:19;12.25;;;7.40;;
9506;SDS011;4791;47.528;9.372;2023-08-17T06:52:19;7.22;;;3.80;;
9506;SDS011;4791;47.528;9.372;2023-08-17T07:07:22;10.47;;;4.40;;
9506;SDS011;4791;47.528;9.372;2023-08-17T07:22:23;5.30;;;3.67;;
9506;SDS011;4791;47.528;9.372;2023-08-17T07:37:23;6.63;;;4.33;;
9506;SDS011;4791;47.528;9.372;2023-08-17T07:52:23;8.00;;;5.40;;
9506;SDS011;4791;47.528;9.372;2023-08-17T08:07:26;6.43;;;4.20;;
9506;SDS011;4791;47.528;9.372;2023-08-17T08:22:26;6.93;;;4.45;;
9506;SDS011;4791;47.528;9.372;2023-08-17T08:37:27;6.50;;;4.05;;
9506;SDS011;4791;47.528;9.372;2023-08-17T08:52:34;6.22;;;4.35;;
9506;SDS011;4791;47.528;9.372;2023-08-17T09:07:36;5.70;;;4.23;;
9506;SDS011;4791;47.528;9.372;2023-08-17T09:22:41;5.70;;;3.80;;
9506;SDS011;4791;47.528;9.372;2023-08-17T09:37:42;5.57;;;3.70;;
9506;SDS011;4791;47.528;9.372;2023-08-17T09:52:43;4.80;;;3.70;;
9506;SDS011;4791;47.528;9.372;2023-08-17T10:07:45;5.57;;;3.10;;
9506;SDS011;4791;47.528;9.372;2023-08-17T10:22:51;5.63;;;3.63;;
9506;SDS011;4791;47.528;9.372;2023-08-17T10:37:55;6.75;;;3.25;;
9506;SDS011;4791;47.528;9.372;2023-08-17T10:52:55;5.40;;;3.25;;
9506;SDS011;4791;47.528;9.372;2023-08-17T11:07:56;3.53;;;2.63;;
9506;SDS011;4791;47.528;9.372;2023-08-17T11:22:57;4.67;;;3.67;;
9506;SDS011;4791;47.528;9.372;2023-08-17T11:37:58;6.43;;;3.80;;
9506;SDS011;4791;47.528;9.372;2023-08-17T11:52:59;6.07;;;3.63;;
9506;SDS011;4791;47.528;9.372;2023-08-17T12:08:00;4.60;;;3.80;;
9506;SDS011;4791;47.528;9.372;2023-08-17T12:23:01;5.68;;;3.70;;
9506;SDS011;4791;47.528;9.372;2023-08-17T12:38:02;6.43;;;3.25;;
9506;SDS011;4791;47.528;9.372;2023-08-17T12:53:03;4.93;;;3.92;;
9506;SDS011;4791;47.528;9.372;2023-08-17T13:08:03;5.00;;;4.18;;
9506;SDS011;4791;47.528;9.372;2023-08-17T13:23:04;7.05;;;3.83;;
9506;SDS011;4791;47.528;9.372;2023-08-17T13:38:04;6.38;;;2.85;;
9506;SDS011;4791;47.528;9.372;2023-08-17T13:53:05;5.50;;;3.58;;
9506;SDS011;4791;47.528;9.372;2023-08-17T14:08:05;7.65;;;4.13;;
9506;SDS011;4791;47.528;9.372;2023-08-17T14:23:06;6.63;;;3.97;;
9506;SDS011;4791;47.528;9.372;2023-08-17T14:38:07;7.30;;;5.00;;
9506;SDS011;4791;47.528;9.372;2023-08-17T14:53:09;9.23;;;4.30;;
9506;SDS011;4791;47.528;9.372;2023-08-17T15:08:11;7.33;;;4.33;;
9506;SDS011;4791;47.528;9.372;2023-08-17T15:23:16;7.83;;;3.50;;
9506;SDS011;4791;47.528;9.372;2023-08-17T15:38:16;10.52;;;3.80;;
9506;SDS011;4791;47.528;9.372;2023-08-17T15:53:17;7.18;;;3.90;;
9506;SDS011;4791;47.528;9.372;2023-08-17T16:08:17;4.43;;;2.70;;
9506;SDS011;4791;47.528;9.372;2023-08-17T16:23:20;4.50;;;2.40;;
9506;SDS011;4791;47.528;9.372;2023-08-17T16:38:20;6.22;;;2.90;;
9506;SDS011;4791;47.528;9.372;2023-08-17T16:53:21;5.22;;;2.70;;
9506;SDS011;4791;47.528;9.372;2023-08-17T17:08:21;4.43;;;2.43;;
9506;SDS011;4791;47.528;9.372;2023-08-17T17:23:24;5.60;;;2.80;;
9506;SDS011;4791;47.528;9.372;2023-08-17T17:38:24;3.87;;;1.77;;
9506;SDS011;4791;47.528;9.372;2023-08-17T17:53:24;3.20;;;1.60;;
9506;SDS011;4791;47.528;9.372;2023-08-17T18:08:25;8.60;;;2.00;;
9506;SDS011;4791;47.528;9.372;2023-08-17T18:23:25;4.47;;;1.87;;
9506;SDS011;4791;47.528;9.372;2023-08-17T18:38:26;4.97;;;1.90;;
9506;SDS011;4791;47.528;9.372;2023-08-17T18:53:28;6.17;;;1.80;;
9506;SDS011;4791;47.528;9.372;2023-08-17T19:08:29;3.58;;;1.75;;
9506;SDS011;4791;47.528;9.372;2023-08-17T19:23:29;3.25;;;1.73;;
9506;SDS011;4791;47.528;9.372;2023-08-17T19:38:30;3.45;;;1.58;;
9506;SDS011;4791;47.528;9.372;2023-08-17T19:53:30;4.05;;;1.80;;
9506;SDS011;4791;47.528;9.372;2023-08-17T20:08:34;2.92;;;1.83;;
9506;SDS011;4791;47.528;9.372;2023-08-17T20:23:34;3.73;;;1.90;;
9506;SDS011;4791;47.528;9.372;2023-08-17T20:38:34;3.93;;;2.10;;
9506;SDS011;4791;47.528;9.372;2023-08-17T20:53:37;5.93;;;2.10;;
9506;SDS011;4791;47.528;9.372;2023-08-17T21:08:39;5.00;;;1.80;;
9506;SDS011;4791;47.528;9.372;2023-08-17T21:23:40;4.20;;;1.98;;
9506;SDS011;4791;47.528;9.372;2023-08-17T21:38:40;6.70;;;2.30;;
9506;SDS011;4791;47.528;9.372;2023-08-17T21:53:41;6.17;;;2.30;;
9506;SDS011;4791;47.528;9.372;2023-08-17T22:08:43;4.47;;;2.10;;
9506;SDS011;4791;47.528;9.372;2023-08-17T22:23:44;2.95;;;1.80;;
9506;SDS011;4791;47.528;9.372;2023-08-17T22:38:46;5.23;;;2.30;;
9506;SDS011;4791;47.528;9.372;2023-08-17T22:53:47;8.57;;;2.40;;
9506;SDS011;4791;47.528;9.372;2023-08-17T23:08:47;7.78;;;2.60;;
9506;SDS011;4791;47.528;9.372;2023-08-17T23:23:47;5.78;;;2.90;;
9506;SDS011;4791;47.528;9.372;2023-08-17T23:38:48;6.97;;;3.10;;
9506;SDS011;4791;47.528;9.372;2023-08-17T23:53:50;5.68;;;2.92;;
